sensor_id;sensor_type;location;lat;lon;timestamp;temperature;humidity
25918;DHT22;13899;51.174;4.456;2023-02-21T00:02:20;9.10;99.90
25918;DHT22;13899;51.174;4.456;2023-02-21T00:05:04;9.00;99.90
25918;DHT22;13899;51.174;4.456;2023-02-21T00:07:48;9.00;99.90
25918;DHT22;13899;51.174;4.456;2023-02-21T00:10:33;8.80;99.90
25918;DHT22;13899;51.174;4.456;2023-02-21T00:13:17;8.80;99.90
25918;DHT22;13899;51.174;4.456;2023-02-21T00:16:01;8.90;99.90
25918;DHT22;13899;51.174;4.456;2023-02-21T00:18:45;9.10;99.90
25918;DHT22;13899;51.174;4.456;2023-02-21T00:21:29;9.50;99.90
25918;DHT22;13899;51.174;4.456;2023-02-21T00:24:15;9.10;99.90
25918;DHT22;13899;51.174;4.456;2023-02-21T00:27:00;9.00;99.90
25918;DHT22;13899;51.174;4.456;2023-02-21T00:29:46;8.80;99.90
25918;DHT22;13899;51.174;4.456;2023-02-21T00:32:32;8.90;99.90
25918;DHT22;13899;51.174;4.456;2023-02-21T00:35:16;8.90;99.90
25918;DHT22;13899;51.174;4.456;2023-02-21T00:38:00;8.70;99.90
25918;DHT22;13899;51.174;4.456;2023-02-21T00:40:44;8.80;99.90
25918;DHT22;13899;51.174;4.456;2023-02-21T00:43:33;8.60;99.90
25918;DHT22;13899;51.174;4.456;2023-02-21T00:46:18;8.60;99.90
25918;DHT22;13899;51.174;4.456;2023-02-21T00:49:03;8.60;99.90
25918;DHT22;13899;51.174;4.456;2023-02-21T00:51:49;8.60;99.90
25918;DHT22;13899;51.174;4.456;2023-02-21T00:54:34;8.80;99.90
25918;DHT22;13899;51.174;4.456;2023-02-21T00:57:19;8.80;99.90
25918;DHT22;13899;51.174;4.456;2023-02-21T01:00:05;9.00;99.90
25918;DHT22;13899;51.174;4.456;2023-02-21T01:02:50;9.30;99.90
25918;DHT22;13899;51.174;4.456;2023-02-21T01:05:34;8.70;99.90
25918;DHT22;13899;51.174;4.456;2023-02-21T01:08:18;8.70;99.90
25918;DHT22;13899;51.174;4.456;2023-02-21T01:11:02;8.50;99.90
25918;DHT22;13899;51.174;4.456;2023-02-21T01:13:46;8.30;99.90
25918;DHT22;13899;51.174;4.456;2023-02-21T01:16:31;8.40;99.90
25918;DHT22;13899;51.174;4.456;2023-02-21T01:19:16;8.50;99.90
25918;DHT22;13899;51.174;4.456;2023-02-21T01:22:03;8.80;99.90
25918;DHT22;13899;51.174;4.456;2023-02-21T01:24:48;9.00;99.90
25918;DHT22;13899;51.174;4.456;2023-02-21T01:27:32;8.80;99.90
25918;DHT22;13899;51.174;4.456;2023-02-21T01:30:17;8.70;99.90
25918;DHT22;13899;51.174;4.456;2023-02-21T01:33:01;8.60;99.90
25918;DHT22;13899;51.174;4.456;2023-02-21T01:35:45;8.30;99.90
25918;DHT22;13899;51.174;4.456;2023-02-21T01:38:32;8.30;99.90
25918;DHT22;13899;51.174;4.456;2023-02-21T01:41:16;8.30;99.90
25918;DHT22;13899;51.174;4.456;2023-02-21T01:44:05;8.30;99.90
25918;DHT22;13899;51.174;4.456;2023-02-21T01:46:49;8.40;99.90
25918;DHT22;13899;51.174;4.456;2023-02-21T01:49:37;8.70;99.90
25918;DHT22;13899;51.174;4.456;2023-02-21T01:52:23;8.50;99.90
25918;DHT22;13899;51.174;4.456;2023-02-21T01:55:09;8.50;99.90
25918;DHT22;13899;51.174;4.456;2023-02-21T01:57:55;8.40;99.90
25918;DHT22;13899;51.174;4.456;2023-02-21T02:00:41;8.30;99.90
25918;DHT22;13899;51.174;4.456;2023-02-21T02:03:26;8.20;99.90
25918;DHT22;13899;51.174;4.456;2023-02-21T02:06:14;8.20;99.90
25918;DHT22;13899;51.174;4.456;2023-02-21T02:09:13;8.20;99.90
25918;DHT22;13899;51.174;4.456;2023-02-21T02:37:42;8.10;99.90
25918;DHT22;13899;51.174;4.456;2023-02-21T02:43:18;8.10;99.90
25918;DHT22;13899;51.174;4.456;2023-02-21T02:45:57;8.00;99.90
25918;DHT22;13899;51.174;4.456;2023-02-21T02:51:00;8.20;99.90
25918;DHT22;13899;51.174;4.456;2023-02-21T02:53:28;8.50;99.90
25918;DHT22;13899;51.174;4.456;2023-02-21T02:55:58;8.50;99.90
25918;DHT22;13899;51.174;4.456;2023-02-21T02:58:28;8.50;99.90
25918;DHT22;13899;51.174;4.456;2023-02-21T03:01:23;8.20;99.90
25918;DHT22;13899;51.174;4.456;2023-02-21T03:09:51;7.90;99.90
25918;DHT22;13899;51.174;4.456;2023-02-21T03:12:46;8.00;99.90
25918;DHT22;13899;51.174;4.456;2023-02-21T03:15:18;7.80;99.90
25918;DHT22;13899;51.174;4.456;2023-02-21T03:17:58;7.90;99.90
25918;DHT22;13899;51.174;4.456;2023-02-21T03:20:26;8.00;99.90
25918;DHT22;13899;51.174;4.456;2023-02-21T03:22:53;7.90;99.90
25918;DHT22;13899;51.174;4.456;2023-02-21T03:25:21;7.80;99.90
25918;DHT22;13899;51.174;4.456;2023-02-21T03:27:48;7.70;99.90
25918;DHT22;13899;51.174;4.456;2023-02-21T03:30:16;7.80;99.90
25918;DHT22;13899;51.174;4.456;2023-02-21T03:32:48;7.70;99.90
25918;DHT22;13899;51.174;4.456;2023-02-21T03:35:14;7.70;99.90
25918;DHT22;13899;51.174;4.456;2023-02-21T03:37:51;7.80;99.90
25918;DHT22;13899;51.174;4.456;2023-02-21T03:40:27;7.90;99.90
25918;DHT22;13899;51.174;4.456;2023-02-21T03:42:54;7.80;99.90
25918;DHT22;13899;51.174;4.456;2023-02-21T03:45:21;7.80;99.90
25918;DHT22;13899;51.174;4.456;2023-02-21T03:47:46;7.60;99.90
25918;DHT22;13899;51.174;4.456;2023-02-21T03:50:12;7.70;99.90
25918;DHT22;13899;51.174;4.456;2023-02-21T03:52:38;7.80;99.90
25918;DHT22;13899;51.174;4.456;2023-02-21T03:55:05;7.70;99.90
25918;DHT22;13899;51.174;4.456;2023-02-21T03:57:30;7.80;99.90
25918;DHT22;13899;51.174;4.456;2023-02-21T03:59:58;7.70;99.90
25918;DHT22;13899;51.174;4.456;2023-02-21T04:02:23;7.80;99.90
25918;DHT22;13899;51.174;4.456;2023-02-21T04:04:49;7.80;99.90
25918;DHT22;13899;51.174;4.456;2023-02-21T04:07:17;8.00;99.90
25918;DHT22;13899;51.174;4.456;2023-02-21T04:09:43;7.90;99.90
25918;DHT22;13899;51.174;4.456;2023-02-21T04:12:09;7.70;99.90
25918;DHT22;13899;51.174;4.456;2023-02-21T04:14:35;7.70;99.90
25918;DHT22;13899;51.174;4.456;2023-02-21T04:17:01;7.80;99.90
25918;DHT22;13899;51.174;4.456;2023-02-21T04:19:26;7.70;99.90
25918;DHT22;13899;51.174;4.456;2023-02-21T04:21:52;7.70;99.90
25918;DHT22;13899;51.174;4.456;2023-02-21T04:24:18;7.60;99.90
25918;DHT22;13899;51.174;4.456;2023-02-21T04:26:43;7.60;99.90
25918;DHT22;13899;51.174;4.456;2023-02-21T04:29:09;7.60;99.90
25918;DHT22;13899;51.174;4.456;2023-02-21T04:31:35;7.70;99.90
25918;DHT22;13899;51.174;4.456;2023-02-21T04:34:01;7.60;99.90
25918;DHT22;13899;51.174;4.456;2023-02-21T04:36:27;7.60;99.90
25918;DHT22;13899;51.174;4.456;2023-02-21T04:38:52;7.60;99.90
25918;DHT22;13899;51.174;4.456;2023-02-21T04:41:18;7.70;99.90
25918;DHT22;13899;51.174;4.456;2023-02-21T04:43:44;7.60;99.90
25918;DHT22;13899;51.174;4.456;2023-02-21T04:46:12;7.60;99.90
25918;DHT22;13899;51.174;4.456;2023-02-21T04:48:44;7.80;99.90
25918;DHT22;13899;51.174;4.456;2023-02-21T04:51:11;7.60;99.90
25918;DHT22;13899;51.174;4.456;2023-02-21T04:53:37;7.60;99.90
25918;DHT22;13899;51.174;4.456;2023-02-21T04:56:03;7.70;99.90
25918;DHT22;13899;51.174;4.456;2023-02-21T04:58:28;7.80;99.90
25918;DHT22;13899;51.174;4.456;2023-02-21T05:00:54;7.70;99.90
25918;DHT22;13899;51.174;4.456;2023-02-21T05:03:20;7.80;99.90
25918;DHT22;13899;51.174;4.456;2023-02-21T05:05:46;7.80;99.90
25918;DHT22;13899;51.174;4.456;2023-02-21T05:08:12;8.00;99.90
25918;DHT22;13899;51.174;4.456;2023-02-21T05:10:37;7.90;99.90
25918;DHT22;13899;51.174;4.456;2023-02-21T05:13:03;7.70;99.90
25918;DHT22;13899;51.174;4.456;2023-02-21T05:15:29;7.70;99.90
25918;DHT22;13899;51.174;4.456;2023-02-21T05:17:54;7.70;99.90
25918;DHT22;13899;51.174;4.456;2023-02-21T05:20:20;7.50;99.90
25918;DHT22;13899;51.174;4.456;2023-02-21T05:22:47;7.70;99.90
25918;DHT22;13899;51.174;4.456;2023-02-21T05:25:16;7.70;99.90
25918;DHT22;13899;51.174;4.456;2023-02-21T05:27:42;7.60;99.90
25918;DHT22;13899;51.174;4.456;2023-02-21T05:30:08;7.60;99.90
25918;DHT22;13899;51.174;4.456;2023-02-21T05:32:34;7.70;99.90
25918;DHT22;13899;51.174;4.456;2023-02-21T05:34:59;7.60;99.90
25918;DHT22;13899;51.174;4.456;2023-02-21T05:37:25;7.60;99.90
25918;DHT22;13899;51.174;4.456;2023-02-21T05:39:50;7.50;99.90
25918;DHT22;13899;51.174;4.456;2023-02-21T05:42:16;7.70;99.90
25918;DHT22;13899;51.174;4.456;2023-02-21T05:44:46;7.70;99.90
25918;DHT22;13899;51.174;4.456;2023-02-21T05:47:13;7.70;99.90
25918;DHT22;13899;51.174;4.456;2023-02-21T05:49:40;7.90;99.90
25918;DHT22;13899;51.174;4.456;2023-02-21T05:52:06;7.70;99.90
25918;DHT22;13899;51.174;4.456;2023-02-21T05:54:32;7.70;99.90
25918;DHT22;13899;51.174;4.456;2023-02-21T05:56:58;7.70;99.90
25918;DHT22;13899;51.174;4.456;2023-02-21T05:59:24;7.80;99.90
25918;DHT22;13899;51.174;4.456;2023-02-21T06:01:50;8.00;99.90
25918;DHT22;13899;51.174;4.456;2023-02-21T06:04:16;7.90;99.90
25918;DHT22;13899;51.174;4.456;2023-02-21T06:06:42;8.00;99.90
25918;DHT22;13899;51.174;4.456;2023-02-21T06:09:08;7.80;99.90
25918;DHT22;13899;51.174;4.456;2023-02-21T06:11:36;8.00;99.90
25918;DHT22;13899;51.174;4.456;2023-02-21T06:14:03;8.00;99.90
25918;DHT22;13899;51.174;4.456;2023-02-21T06:16:37;7.90;99.90
25918;DHT22;13899;51.174;4.456;2023-02-21T06:19:05;7.90;99.90
25918;DHT22;13899;51.174;4.456;2023-02-21T06:21:31;8.00;99.90
25918;DHT22;13899;51.174;4.456;2023-02-21T06:23:57;7.80;99.90
25918;DHT22;13899;51.174;4.456;2023-02-21T06:26:22;8.10;99.90
25918;DHT22;13899;51.174;4.456;2023-02-21T06:28:48;8.10;99.90
25918;DHT22;13899;51.174;4.456;2023-02-21T06:31:15;7.80;99.90
25918;DHT22;13899;51.174;4.456;2023-02-21T06:33:41;7.70;99.90
25918;DHT22;13899;51.174;4.456;2023-02-21T06:36:11;7.70;99.90
25918;DHT22;13899;51.174;4.456;2023-02-21T06:38:37;7.90;99.90
25918;DHT22;13899;51.174;4.456;2023-02-21T06:41:07;7.90;99.90
25918;DHT22;13899;51.174;4.456;2023-02-21T06:43:32;7.80;99.90
25918;DHT22;13899;51.174;4.456;2023-02-21T06:46:01;7.60;99.90
25918;DHT22;13899;51.174;4.456;2023-02-21T06:48:27;7.70;99.90
25918;DHT22;13899;51.174;4.456;2023-02-21T06:50:52;7.80;99.90
25918;DHT22;13899;51.174;4.456;2023-02-21T06:53:18;7.70;99.90
25918;DHT22;13899;51.174;4.456;2023-02-21T06:55:43;7.60;99.90
25918;DHT22;13899;51.174;4.456;2023-02-21T06:58:09;7.80;99.90
25918;DHT22;13899;51.174;4.456;2023-02-21T07:00:35;7.70;99.90
25918;DHT22;13899;51.174;4.456;2023-02-21T07:03:00;7.70;99.90
25918;DHT22;13899;51.174;4.456;2023-02-21T07:05:26;7.80;99.90
25918;DHT22;13899;51.174;4.456;2023-02-21T07:07:53;7.80;99.90
25918;DHT22;13899;51.174;4.456;2023-02-21T07:10:19;7.80;99.90
25918;DHT22;13899;51.174;4.456;2023-02-21T07:12:44;7.70;99.90
25918;DHT22;13899;51.174;4.456;2023-02-21T07:15:10;7.60;99.90
25918;DHT22;13899;51.174;4.456;2023-02-21T07:17:36;7.70;99.90
25918;DHT22;13899;51.174;4.456;2023-02-21T07:20:01;7.70;99.90
25918;DHT22;13899;51.174;4.456;2023-02-21T07:22:28;7.60;99.90
25918;DHT22;13899;51.174;4.456;2023-02-21T07:24:55;7.50;99.90
25918;DHT22;13899;51.174;4.456;2023-02-21T07:27:21;7.60;99.90
25918;DHT22;13899;51.174;4.456;2023-02-21T07:29:48;7.50;99.90
25918;DHT22;13899;51.174;4.456;2023-02-21T07:32:14;7.60;99.90
25918;DHT22;13899;51.174;4.456;2023-02-21T07:34:39;7.60;99.90
25918;DHT22;13899;51.174;4.456;2023-02-21T07:37:05;7.70;99.90
25918;DHT22;13899;51.174;4.456;2023-02-21T07:39:31;7.70;99.90
25918;DHT22;13899;51.174;4.456;2023-02-21T07:41:56;7.60;99.90
25918;DHT22;13899;51.174;4.456;2023-02-21T07:44:22;7.50;99.90
25918;DHT22;13899;51.174;4.456;2023-02-21T07:46:48;7.60;99.90
25918;DHT22;13899;51.174;4.456;2023-02-21T07:49:13;7.90;99.90
25918;DHT22;13899;51.174;4.456;2023-02-21T07:51:39;7.80;99.90
25918;DHT22;13899;51.174;4.456;2023-02-21T07:54:04;7.80;99.90
25918;DHT22;13899;51.174;4.456;2023-02-21T07:56:30;7.80;99.90
25918;DHT22;13899;51.174;4.456;2023-02-21T07:58:56;7.80;99.90
25918;DHT22;13899;51.174;4.456;2023-02-21T08:01:23;7.90;99.90
25918;DHT22;13899;51.174;4.456;2023-02-21T08:03:49;7.80;99.90
25918;DHT22;13899;51.174;4.456;2023-02-21T08:06:14;7.60;99.90
25918;DHT22;13899;51.174;4.456;2023-02-21T08:08:40;7.50;99.90
25918;DHT22;13899;51.174;4.456;2023-02-21T08:11:05;7.70;99.90
25918;DHT22;13899;51.174;4.456;2023-02-21T08:13:31;7.60;99.90
25918;DHT22;13899;51.174;4.456;2023-02-21T08:15:57;7.80;99.90
25918;DHT22;13899;51.174;4.456;2023-02-21T08:18:22;7.80;99.90
25918;DHT22;13899;51.174;4.456;2023-02-21T08:20:53;7.80;99.90
25918;DHT22;13899;51.174;4.456;2023-02-21T08:23:20;7.70;99.90
25918;DHT22;13899;51.174;4.456;2023-02-21T08:25:46;7.60;99.90
25918;DHT22;13899;51.174;4.456;2023-02-21T08:28:12;7.60;99.90
25918;DHT22;13899;51.174;4.456;2023-02-21T08:30:39;7.60;99.90
25918;DHT22;13899;51.174;4.456;2023-02-21T08:33:04;7.70;99.90
25918;DHT22;13899;51.174;4.456;2023-02-21T08:35:30;7.90;99.90
25918;DHT22;13899;51.174;4.456;2023-02-21T08:37:56;8.00;99.90
25918;DHT22;13899;51.174;4.456;2023-02-21T08:40:28;7.90;99.90
25918;DHT22;13899;51.174;4.456;2023-02-21T08:42:55;8.00;99.90
25918;DHT22;13899;51.174;4.456;2023-02-21T08:45:22;8.10;99.90
25918;DHT22;13899;51.174;4.456;2023-02-21T08:47:48;7.80;99.90
25918;DHT22;13899;51.174;4.456;2023-02-21T08:50:15;7.80;99.90
25918;DHT22;13899;51.174;4.456;2023-02-21T08:52:40;8.10;99.90
25918;DHT22;13899;51.174;4.456;2023-02-21T08:55:06;8.20;99.90
25918;DHT22;13899;51.174;4.456;2023-02-21T08:57:32;8.20;99.90
25918;DHT22;13899;51.174;4.456;2023-02-21T08:59:59;8.10;99.90
25918;DHT22;13899;51.174;4.456;2023-02-21T09:02:25;8.20;99.90
25918;DHT22;13899;51.174;4.456;2023-02-21T09:04:53;7.90;99.90
25918;DHT22;13899;51.174;4.456;2023-02-21T09:07:20;7.80;99.90
25918;DHT22;13899;51.174;4.456;2023-02-21T09:09:47;7.70;99.90
25918;DHT22;13899;51.174;4.456;2023-02-21T09:12:13;7.80;99.90
25918;DHT22;13899;51.174;4.456;2023-02-21T09:14:40;8.00;99.90
25918;DHT22;13899;51.174;4.456;2023-02-21T09:17:07;8.50;99.90
25918;DHT22;13899;51.174;4.456;2023-02-21T09:19:33;8.70;99.90
25918;DHT22;13899;51.174;4.456;2023-02-21T09:21:59;8.90;99.90
25918;DHT22;13899;51.174;4.456;2023-02-21T09:24:26;8.60;99.90
25918;DHT22;13899;51.174;4.456;2023-02-21T09:26:56;8.10;99.90
25918;DHT22;13899;51.174;4.456;2023-02-21T09:29:32;8.00;99.90
25918;DHT22;13899;51.174;4.456;2023-02-21T09:31:59;8.00;99.90
25918;DHT22;13899;51.174;4.456;2023-02-21T09:34:25;8.30;99.90
25918;DHT22;13899;51.174;4.456;2023-02-21T09:36:51;8.40;99.90
25918;DHT22;13899;51.174;4.456;2023-02-21T09:39:19;7.90;99.90
25918;DHT22;13899;51.174;4.456;2023-02-21T09:41:45;7.60;99.90
25918;DHT22;13899;51.174;4.456;2023-02-21T09:44:19;7.70;99.90
25918;DHT22;13899;51.174;4.456;2023-02-21T09:46:48;7.80;99.90
25918;DHT22;13899;51.174;4.456;2023-02-21T09:49:24;7.70;99.90
25918;DHT22;13899;51.174;4.456;2023-02-21T09:51:52;8.10;99.90
25918;DHT22;13899;51.174;4.456;2023-02-21T09:54:29;7.80;99.90
25918;DHT22;13899;51.174;4.456;2023-02-21T09:56:57;7.80;99.90
25918;DHT22;13899;51.174;4.456;2023-02-21T09:59:24;7.70;99.90
25918;DHT22;13899;51.174;4.456;2023-02-21T10:09:57;7.70;99.90
25918;DHT22;13899;51.174;4.456;2023-02-21T10:12:28;7.70;99.90
25918;DHT22;13899;51.174;4.456;2023-02-21T10:20:38;8.00;99.90
25918;DHT22;13899;51.174;4.456;2023-02-21T10:23:14;8.20;99.90
25918;DHT22;13899;51.174;4.456;2023-02-21T10:25:43;8.70;99.90
25918;DHT22;13899;51.174;4.456;2023-02-21T10:28:18;8.50;99.90
25918;DHT22;13899;51.174;4.456;2023-02-21T10:30:45;8.10;99.90
25918;DHT22;13899;51.174;4.456;2023-02-21T10:33:11;8.20;99.90
25918;DHT22;13899;51.174;4.456;2023-02-21T10:35:38;7.80;99.90
25918;DHT22;13899;51.174;4.456;2023-02-21T10:38:08;7.90;99.90
25918;DHT22;13899;51.174;4.456;2023-02-21T10:40:41;8.00;99.90
25918;DHT22;13899;51.174;4.456;2023-02-21T10:43:20;8.10;99.90
25918;DHT22;13899;51.174;4.456;2023-02-21T10:48:19;8.80;99.90
25918;DHT22;13899;51.174;4.456;2023-02-21T10:51:03;8.80;99.90
25918;DHT22;13899;51.174;4.456;2023-02-21T10:53:37;8.30;99.90
25918;DHT22;13899;51.174;4.456;2023-02-21T11:03:52;9.50;99.90
25918;DHT22;13899;51.174;4.456;2023-02-21T11:06:36;9.50;99.90
25918;DHT22;13899;51.174;4.456;2023-02-21T11:09:27;8.90;99.90
25918;DHT22;13899;51.174;4.456;2023-02-21T11:12:00;8.60;99.90
25918;DHT22;13899;51.174;4.456;2023-02-21T11:14:27;8.80;99.90
25918;DHT22;13899;51.174;4.456;2023-02-21T11:17:24;8.60;99.90
25918;DHT22;13899;51.174;4.456;2023-02-21T11:19:53;8.60;99.90
25918;DHT22;13899;51.174;4.456;2023-02-21T11:22:34;8.60;99.90
25918;DHT22;13899;51.174;4.456;2023-02-21T11:33:23;8.70;99.90
25918;DHT22;13899;51.174;4.456;2023-02-21T11:35:51;8.60;99.90
25918;DHT22;13899;51.174;4.456;2023-02-21T11:38:36;8.40;99.90
25918;DHT22;13899;51.174;4.456;2023-02-21T11:44:00;8.70;99.90
25918;DHT22;13899;51.174;4.456;2023-02-21T11:46:45;8.70;99.90
25918;DHT22;13899;51.174;4.456;2023-02-21T11:49:24;8.30;99.90
25918;DHT22;13899;51.174;4.456;2023-02-21T11:54:24;8.10;99.90
25918;DHT22;13899;51.174;4.456;2023-02-21T11:56:57;8.10;99.90
25918;DHT22;13899;51.174;4.456;2023-02-21T12:07:25;8.60;99.90
25918;DHT22;13899;51.174;4.456;2023-02-21T12:12:38;8.60;99.90
25918;DHT22;13899;51.174;4.456;2023-02-21T12:15:42;8.70;99.90
25918;DHT22;13899;51.174;4.456;2023-02-21T12:21:04;9.20;99.90
25918;DHT22;13899;51.174;4.456;2023-02-21T12:29:04;8.80;99.90
25918;DHT22;13899;51.174;4.456;2023-02-21T12:31:54;8.70;99.90
25918;DHT22;13899;51.174;4.456;2023-02-21T12:39:39;8.40;99.90
25918;DHT22;13899;51.174;4.456;2023-02-21T12:47:48;8.50;99.90
25918;DHT22;13899;51.174;4.456;2023-02-21T12:50:20;8.90;99.90
25918;DHT22;13899;51.174;4.456;2023-02-21T12:53:07;9.40;99.90
25918;DHT22;13899;51.174;4.456;2023-02-21T12:55:35;9.60;99.90
25918;DHT22;13899;51.174;4.456;2023-02-21T12:58:29;10.10;99.90
25918;DHT22;13899;51.174;4.456;2023-02-21T13:04:03;9.60;99.90
25918;DHT22;13899;51.174;4.456;2023-02-21T13:06:37;9.60;99.90
25918;DHT22;13899;51.174;4.456;2023-02-21T13:09:20;9.90;99.90
25918;DHT22;13899;51.174;4.456;2023-02-21T13:14:35;9.40;99.90
25918;DHT22;13899;51.174;4.456;2023-02-21T13:17:01;9.40;99.90
25918;DHT22;13899;51.174;4.456;2023-02-21T13:19:35;8.90;99.90
25918;DHT22;13899;51.174;4.456;2023-02-21T13:25:13;8.70;99.90
25918;DHT22;13899;51.174;4.456;2023-02-21T13:30:20;8.60;99.90
25918;DHT22;13899;51.174;4.456;2023-02-21T13:33:06;8.60;99.90
25918;DHT22;13899;51.174;4.456;2023-02-21T13:35:36;8.70;99.90
25918;DHT22;13899;51.174;4.456;2023-02-21T13:38:05;9.30;99.90
25918;DHT22;13899;51.174;4.456;2023-02-21T13:43:44;8.90;99.90
25918;DHT22;13899;51.174;4.456;2023-02-21T14:19:00;8.80;99.90
25918;DHT22;13899;51.174;4.456;2023-02-21T14:24:04;8.70;99.90
25918;DHT22;13899;51.174;4.456;2023-02-21T14:26:38;8.40;99.90
25918;DHT22;13899;51.174;4.456;2023-02-21T14:32:13;8.90;99.90
25918;DHT22;13899;51.174;4.456;2023-02-21T14:39:57;9.40;99.90
25918;DHT22;13899;51.174;4.456;2023-02-21T14:42:45;9.70;99.90
25918;DHT22;13899;51.174;4.456;2023-02-21T14:48:14;11.00;99.90
25918;DHT22;13899;51.174;4.456;2023-02-21T14:53:55;11.00;99.90
25918;DHT22;13899;51.174;4.456;2023-02-21T15:05:16;9.40;99.90
25918;DHT22;13899;51.174;4.456;2023-02-21T15:12:51;9.20;99.90
25918;DHT22;13899;51.174;4.456;2023-02-21T15:18:11;9.00;99.90
25918;DHT22;13899;51.174;4.456;2023-02-21T15:20:41;8.80;99.90
25918;DHT22;13899;51.174;4.456;2023-02-21T15:23:13;8.80;99.90
25918;DHT22;13899;51.174;4.456;2023-02-21T15:25:41;8.60;99.90
25918;DHT22;13899;51.174;4.456;2023-02-21T15:28:23;8.80;99.90
25918;DHT22;13899;51.174;4.456;2023-02-21T15:31:04;9.00;99.90
25918;DHT22;13899;51.174;4.456;2023-02-21T15:33:42;9.10;99.90
25918;DHT22;13899;51.174;4.456;2023-02-21T15:36:20;9.00;99.90
25918;DHT22;13899;51.174;4.456;2023-02-21T15:38:50;9.10;99.90
25918;DHT22;13899;51.174;4.456;2023-02-21T15:41:26;9.30;99.90
25918;DHT22;13899;51.174;4.456;2023-02-21T15:43:53;9.20;99.90
25918;DHT22;13899;51.174;4.456;2023-02-21T15:46:23;9.00;99.90
25918;DHT22;13899;51.174;4.456;2023-02-21T15:48:50;9.20;99.90
25918;DHT22;13899;51.174;4.456;2023-02-21T15:51:16;9.60;99.90
25918;DHT22;13899;51.174;4.456;2023-02-21T15:53:42;9.70;99.90
25918;DHT22;13899;51.174;4.456;2023-02-21T15:56:18;9.50;99.90
25918;DHT22;13899;51.174;4.456;2023-02-21T16:01:32;11.10;99.90
25918;DHT22;13899;51.174;4.456;2023-02-21T16:04:36;11.20;99.90
25918;DHT22;13899;51.174;4.456;2023-02-21T16:07:06;11.20;99.90
25918;DHT22;13899;51.174;4.456;2023-02-21T16:09:43;10.70;99.90
25918;DHT22;13899;51.174;4.456;2023-02-21T16:14:56;10.00;99.90
25918;DHT22;13899;51.174;4.456;2023-02-21T16:17:36;10.20;99.90
25918;DHT22;13899;51.174;4.456;2023-02-21T16:22:38;9.40;99.90
25918;DHT22;13899;51.174;4.456;2023-02-21T16:27:41;9.60;99.90
25918;DHT22;13899;51.174;4.456;2023-02-21T16:30:12;10.50;99.90
25918;DHT22;13899;51.174;4.456;2023-02-21T16:32:41;11.00;99.90
25918;DHT22;13899;51.174;4.456;2023-02-21T16:35:12;10.90;99.90
25918;DHT22;13899;51.174;4.456;2023-02-21T16:37:38;10.00;99.90
25918;DHT22;13899;51.174;4.456;2023-02-21T16:40:16;9.40;99.90
25918;DHT22;13899;51.174;4.456;2023-02-21T16:42:46;9.50;99.90
25918;DHT22;13899;51.174;4.456;2023-02-21T16:45:12;10.20;99.90
25918;DHT22;13899;51.174;4.456;2023-02-21T16:47:38;10.20;99.90
25918;DHT22;13899;51.174;4.456;2023-02-21T16:50:04;9.70;99.90
25918;DHT22;13899;51.174;4.456;2023-02-21T16:52:29;10.00;99.90
25918;DHT22;13899;51.174;4.456;2023-02-21T16:54:55;10.00;99.90
25918;DHT22;13899;51.174;4.456;2023-02-21T16:57:21;10.40;99.90
25918;DHT22;13899;51.174;4.456;2023-02-21T16:59:46;11.40;99.90
25918;DHT22;13899;51.174;4.456;2023-02-21T17:02:13;10.70;99.90
25918;DHT22;13899;51.174;4.456;2023-02-21T17:04:40;10.50;99.90
25918;DHT22;13899;51.174;4.456;2023-02-21T17:07:06;10.20;99.90
25918;DHT22;13899;51.174;4.456;2023-02-21T17:09:36;9.60;99.90
25918;DHT22;13899;51.174;4.456;2023-02-21T17:12:06;9.30;99.90
25918;DHT22;13899;51.174;4.456;2023-02-21T17:14:32;9.30;99.90
25918;DHT22;13899;51.174;4.456;2023-02-21T17:16:58;9.50;99.90
25918;DHT22;13899;51.174;4.456;2023-02-21T17:19:24;9.10;99.90
25918;DHT22;13899;51.174;4.456;2023-02-21T17:21:51;9.00;99.90
25918;DHT22;13899;51.174;4.456;2023-02-21T17:24:17;9.60;99.90
25918;DHT22;13899;51.174;4.456;2023-02-21T17:26:43;10.20;99.90
25918;DHT22;13899;51.174;4.456;2023-02-21T17:29:10;10.60;99.90
25918;DHT22;13899;51.174;4.456;2023-02-21T17:31:36;11.00;99.90
25918;DHT22;13899;51.174;4.456;2023-02-21T17:34:02;10.90;99.90
25918;DHT22;13899;51.174;4.456;2023-02-21T17:36:28;10.60;99.90
25918;DHT22;13899;51.174;4.456;2023-02-21T17:38:55;10.70;99.90
25918;DHT22;13899;51.174;4.456;2023-02-21T17:41:21;10.90;99.90
25918;DHT22;13899;51.174;4.456;2023-02-21T17:43:47;10.70;99.90
25918;DHT22;13899;51.174;4.456;2023-02-21T17:46:16;9.80;99.90
25918;DHT22;13899;51.174;4.456;2023-02-21T17:48:43;9.30;99.90
25918;DHT22;13899;51.174;4.456;2023-02-21T17:51:15;9.50;99.90
25918;DHT22;13899;51.174;4.456;2023-02-21T17:53:41;9.80;99.90
25918;DHT22;13899;51.174;4.456;2023-02-21T17:56:07;10.00;99.90
25918;DHT22;13899;51.174;4.456;2023-02-21T17:58:32;10.20;99.90
25918;DHT22;13899;51.174;4.456;2023-02-21T18:00:58;10.90;99.90
25918;DHT22;13899;51.174;4.456;2023-02-21T18:03:24;11.20;99.90
25918;DHT22;13899;51.174;4.456;2023-02-21T18:05:50;11.50;99.90
25918;DHT22;13899;51.174;4.456;2023-02-21T18:08:16;11.70;99.90
25918;DHT22;13899;51.174;4.456;2023-02-21T18:10:43;11.50;99.90
25918;DHT22;13899;51.174;4.456;2023-02-21T18:13:18;11.80;99.90
25918;DHT22;13899;51.174;4.456;2023-02-21T18:15:44;11.00;99.90
25918;DHT22;13899;51.174;4.456;2023-02-21T18:18:10;9.50;99.90
25918;DHT22;13899;51.174;4.456;2023-02-21T18:20:36;8.80;99.90
25918;DHT22;13899;51.174;4.456;2023-02-21T18:23:01;9.20;99.90
25918;DHT22;13899;51.174;4.456;2023-02-21T18:25:28;9.10;99.90
25918;DHT22;13899;51.174;4.456;2023-02-21T18:27:53;8.70;99.90
25918;DHT22;13899;51.174;4.456;2023-02-21T18:30:19;8.80;99.90
25918;DHT22;13899;51.174;4.456;2023-02-21T18:32:46;8.60;99.90
25918;DHT22;13899;51.174;4.456;2023-02-21T18:35:13;8.70;99.90
25918;DHT22;13899;51.174;4.456;2023-02-21T18:37:38;9.30;99.90
25918;DHT22;13899;51.174;4.456;2023-02-21T18:40:05;9.70;99.90
25918;DHT22;13899;51.174;4.456;2023-02-21T18:42:32;9.50;99.90
25918;DHT22;13899;51.174;4.456;2023-02-21T18:44:58;8.90;99.90
25918;DHT22;13899;51.174;4.456;2023-02-21T18:47:26;9.10;99.90
25918;DHT22;13899;51.174;4.456;2023-02-21T18:49:52;9.50;99.90
25918;DHT22;13899;51.174;4.456;2023-02-21T18:52:17;9.60;99.90
25918;DHT22;13899;51.174;4.456;2023-02-21T18:54:45;9.80;99.90
25918;DHT22;13899;51.174;4.456;2023-02-21T18:57:11;9.20;99.90
25918;DHT22;13899;51.174;4.456;2023-02-21T18:59:37;9.00;99.90
25918;DHT22;13899;51.174;4.456;2023-02-21T19:02:03;9.10;99.90
25918;DHT22;13899;51.174;4.456;2023-02-21T19:04:30;9.70;99.90
25918;DHT22;13899;51.174;4.456;2023-02-21T19:06:56;10.10;99.90
25918;DHT22;13899;51.174;4.456;2023-02-21T19:09:21;10.10;99.90
25918;DHT22;13899;51.174;4.456;2023-02-21T19:11:47;10.40;99.90
25918;DHT22;13899;51.174;4.456;2023-02-21T19:14:12;10.80;99.90
25918;DHT22;13899;51.174;4.456;2023-02-21T19:16:38;11.20;99.90
25918;DHT22;13899;51.174;4.456;2023-02-21T19:19:04;11.60;99.90
25918;DHT22;13899;51.174;4.456;2023-02-21T19:21:30;11.60;99.90
25918;DHT22;13899;51.174;4.456;2023-02-21T19:23:56;11.40;99.90
25918;DHT22;13899;51.174;4.456;2023-02-21T19:26:21;11.20;99.90